Time;durP1;ratioP1;P1;durP2;ratioP2;P2;SDS_P1;SDS_P2;PMS_P1;PMS_P2;Temp;Humidity;BMP_temperature;BMP_pressure;BME280_temperature;BME280_humidity;BME280_pressure;Samples;Min_cycle;Max_cycle;Signal;HPM_P1;HPM_P2
2023/08/31 00:00:41;;;;;;;7.80;5.53;;;;;;;;;;4971506;28;20039;-66
2023/08/31 00:03:06;;;;;;;7.28;5.60;;;;;;;;;;4959870;28;20030;-65
2023/08/31 00:05:32;;;;;;;12.40;5.30;;;;;;;;;;4972152;28;20061;-65
2023/08/31 00:07:57;;;;;;;8.13;5.20;;;;;;;;;;4962306;28;20122;-65
2023/08/31 00:10:23;;;;;;;6.20;4.97;;;;;;;;;;4969494;28;20493;-65
2023/08/31 00:12:49;;;;;;;6.15;4.88;;;;;;;;;;4961177;28;20070;-65
2023/08/31 00:15:15;;;;;;;7.25;5.15;;;;;;;;;;4970604;28;20495;-65
2023/08/31 00:17:40;;;;;;;8.15;5.03;;;;;;;;;;4959882;28;20030;-65
2023/08/31 00:20:08;;;;;;;5.93;4.57;;;;;;;;;;4978566;28;20384;-65
2023/08/31 00:22:33;;;;;;;9.50;5.43;;;;;;;;;;4991108;28;20045;-65
2023/08/31 00:24:59;;;;;;;7.47;5.50;;;;;;;;;;4972623;28;20121;-66
2023/08/31 00:27:24;;;;;;;5.82;4.55;;;;;;;;;;4957573;28;20110;-65
2023/08/31 00:29:50;;;;;;;8.30;4.63;;;;;;;;;;4973786;28;20023;-65
2023/08/31 00:32:18;;;;;;;12.98;5.50;;;;;;;;;;4956196;28;20046;-65
2023/08/31 00:34:44;;;;;;;7.05;4.70;;;;;;;;;;4974446;28;20499;-65
2023/08/31 00:37:09;;;;;;;7.80;4.97;;;;;;;;;;4955342;29;20027;-65
2023/08/31 00:39:35;;;;;;;7.82;4.82;;;;;;;;;;4974596;28;20027;-65
2023/08/31 00:42:00;;;;;;;6.07;4.68;;;;;;;;;;4956214;28;20031;-65
2023/08/31 00:44:26;;;;;;;8.75;4.90;;;;;;;;;;4973215;28;20491;-65
2023/08/31 00:46:51;;;;;;;7.13;5.00;;;;;;;;;;4957364;28;20042;-65
2023/08/31 00:49:18;;;;;;;7.07;5.28;;;;;;;;;;4971992;28;20030;-65
2023/08/31 00:51:48;;;;;;;7.32;5.07;;;;;;;;;;4958410;28;20031;-65
2023/08/31 00:54:14;;;;;;;6.15;4.65;;;;;;;;;;4971628;28;20043;-65
2023/08/31 00:56:39;;;;;;;8.27;5.18;;;;;;;;;;4958912;28;20396;-65
2023/08/31 00:59:05;;;;;;;5.82;4.90;;;;;;;;;;4985382;28;20026;-65
2023/08/31 01:01:43;;;;;;;9.73;5.45;;;;;;;;;;4979473;28;20046;-65
2023/08/31 01:04:22;;;;;;;6.63;4.82;;;;;;;;;;4958519;28;20028;-65
2023/08/31 01:07:12;;;;;;;8.47;5.23;;;;;;;;;;4971305;28;20484;-65
2023/08/31 01:09:51;;;;;;;6.45;5.53;;;;;;;;;;4955210;28;20446;-65
2023/08/31 01:12:29;;;;;;;7.82;5.10;;;;;;;;;;4955231;28;20461;-65
2023/08/31 01:14:59;;;;;;;8.20;5.40;;;;;;;;;;4972879;28;20054;-65
2023/08/31 01:17:28;;;;;;;6.00;5.15;;;;;;;;;;4956140;28;20027;-65
2023/08/31 01:19:59;;;;;;;7.70;5.80;;;;;;;;;;4973124;28;20469;-66
2023/08/31 01:22:43;;;;;;;7.15;5.50;;;;;;;;;;4956146;28;20035;-65
2023/08/31 01:25:09;;;;;;;6.95;5.75;;;;;;;;;;4971008;28;20134;-65
2023/08/31 01:27:36;;;;;;;9.40;5.57;;;;;;;;;;4957278;28;20029;-66
2023/08/31 01:30:03;;;;;;;10.43;6.38;;;;;;;;;;4972105;28;20031;-65
2023/08/31 01:32:28;;;;;;;6.35;5.75;;;;;;;;;;4956305;28;20469;-65
2023/08/31 01:34:54;;;;;;;7.00;5.70;;;;;;;;;;4974678;28;20041;-65
2023/08/31 01:37:38;;;;;;;6.38;5.53;;;;;;;;;;4992878;28;20027;-65
2023/08/31 01:40:19;;;;;;;8.27;5.88;;;;;;;;;;4971673;28;20046;-65
2023/08/31 01:42:46;;;;;;;6.05;5.05;;;;;;;;;;4958213;28;20037;-65
2023/08/31 01:45:15;;;;;;;6.82;5.40;;;;;;;;;;4970477;28;20139;-65
2023/08/31 01:47:40;;;;;;;6.25;5.18;;;;;;;;;;4957759;28;20030;-65
2023/08/31 01:50:06;;;;;;;8.68;5.88;;;;;;;;;;4971168;28;20117;-65
2023/08/31 01:52:31;;;;;;;9.10;5.60;;;;;;;;;;4956288;28;20465;-65
2023/08/31 01:54:57;;;;;;;13.57;6.10;;;;;;;;;;4968738;28;20043;-65
2023/08/31 01:57:22;;;;;;;10.13;6.30;;;;;;;;;;4958791;28;20037;-65
2023/08/31 01:59:48;;;;;;;6.57;5.75;;;;;;;;;;4969807;28;20496;-65
2023/08/31 02:02:14;;;;;;;10.23;6.78;;;;;;;;;;4957560;28;20039;-65
2023/08/31 02:04:39;;;;;;;8.90;5.60;;;;;;;;;;4970491;28;20035;-65
2023/08/31 02:07:05;;;;;;;10.23;5.95;;;;;;;;;;4956197;28;20027;-65
2023/08/31 02:09:30;;;;;;;9.07;6.05;;;;;;;;;;4972033;28;20392;-65
2023/08/31 02:11:56;;;;;;;10.18;5.38;;;;;;;;;;4954864;28;20330;-65
2023/08/31 02:14:22;;;;;;;7.95;5.43;;;;;;;;;;4973411;28;20047;-65
2023/08/31 02:16:47;;;;;;;8.27;4.85;;;;;;;;;;4995538;28;20109;-65
2023/08/31 02:19:13;;;;;;;7.15;5.72;;;;;;;;;;4977723;28;20504;-65
2023/08/31 02:21:38;;;;;;;9.18;5.82;;;;;;;;;;4959283;28;20043;-65
2023/08/31 02:24:04;;;;;;;7.35;5.15;;;;;;;;;;4975727;28;20026;-65
2023/08/31 02:26:30;;;;;;;7.15;5.32;;;;;;;;;;4960121;28;20098;-65
2023/08/31 02:28:55;;;;;;;10.40;5.85;;;;;;;;;;4974583;28;20058;-65
2023/08/31 02:31:20;;;;;;;7.35;6.00;;;;;;;;;;4961536;28;20117;-65
2023/08/31 02:33:47;;;;;;;8.93;5.28;;;;;;;;;;4972778;28;20018;-65
2023/08/31 02:36:12;;;;;;;6.47;5.15;;;;;;;;;;4962485;28;20118;-65
2023/08/31 02:38:38;;;;;;;7.68;5.35;;;;;;;;;;4971809;28;20126;-65
2023/08/31 02:41:03;;;;;;;8.00;5.70;;;;;;;;;;4963784;28;20117;-65
2023/08/31 02:43:30;;;;;;;7.82;5.70;;;;;;;;;;4970336;28;20113;-65
2023/08/31 02:46:02;;;;;;;7.00;5.65;;;;;;;;;;4964627;28;20392;-65
2023/08/31 02:48:29;;;;;;;8.88;5.65;;;;;;;;;;4969920;28;20054;-65
2023/08/31 02:50:56;;;;;;;8.90;6.28;;;;;;;;;;4964852;28;20497;-65
2023/08/31 02:53:21;;;;;;;10.07;6.47;;;;;;;;;;4980807;28;20041;-65
2023/08/31 02:55:47;;;;;;;9.65;6.55;;;;;;;;;;4985303;28;20031;-66
2023/08/31 02:58:12;;;;;;;9.90;7.25;;;;;;;;;;4965284;28;20114;-65
2023/08/31 03:00:42;;;;;;;12.48;8.75;;;;;;;;;;4967038;28;20224;-65
2023/08/31 03:03:08;;;;;;;12.80;8.85;;;;;;;;;;4966475;28;20039;-65
2023/08/31 03:05:33;;;;;;;10.75;6.88;;;;;;;;;;4966311;28;20476;-65
2023/08/31 03:07:59;;;;;;;7.47;6.65;;;;;;;;;;4968273;28;20105;-65
2023/08/31 03:10:24;;;;;;;9.20;7.30;;;;;;;;;;4965124;28;20031;-65
2023/08/31 03:12:50;;;;;;;9.52;7.32;;;;;;;;;;4969189;28;20047;-65
2023/08/31 03:15:15;;;;;;;10.05;7.20;;;;;;;;;;4963598;28;20388;-65
2023/08/31 03:17:41;;;;;;;9.95;6.85;;;;;;;;;;4970401;28;20115;-65
2023/08/31 03:20:07;;;;;;;9.10;6.93;;;;;;;;;;4962300;28;20034;-66
2023/08/31 03:22:33;;;;;;;9.57;7.00;;;;;;;;;;4971586;28;20491;-65
2023/08/31 03:24:58;;;;;;;10.93;7.05;;;;;;;;;;4960623;28;20117;-65
2023/08/31 03:27:24;;;;;;;11.20;6.72;;;;;;;;;;4971878;28;20035;-65
2023/08/31 03:29:50;;;;;;;11.50;6.50;;;;;;;;;;4962556;28;20023;-65
2023/08/31 03:32:15;;;;;;;10.20;7.05;;;;;;;;;;4993044;28;20111;-65
2023/08/31 03:34:41;;;;;;;12.57;7.22;;;;;;;;;;4974540;28;20097;-66
2023/08/31 03:37:06;;;;;;;10.88;6.90;;;;;;;;;;4957610;28;20023;-65
2023/08/31 03:39:31;;;;;;;14.88;7.38;;;;;;;;;;4975479;28;20026;-65
2023/08/31 03:41:57;;;;;;;8.85;6.53;;;;;;;;;;4956822;29;20023;-65
2023/08/31 03:44:22;;;;;;;10.35;6.43;;;;;;;;;;4975657;28;20034;-65
2023/08/31 03:46:48;;;;;;;7.93;6.50;;;;;;;;;;4957203;28;20477;-65
2023/08/31 03:49:13;;;;;;;9.20;6.38;;;;;;;;;;4974232;28;20038;-65
2023/08/31 03:51:39;;;;;;;8.32;6.60;;;;;;;;;;4958650;28;20023;-65
2023/08/31 03:54:05;;;;;;;9.73;6.95;;;;;;;;;;4972937;28;20053;-65
2023/08/31 03:56:30;;;;;;;8.48;6.45;;;;;;;;;;4959643;28;20027;-65
2023/08/31 03:58:55;;;;;;;9.10;6.40;;;;;;;;;;4975621;28;20034;-66
2023/08/31 04:01:21;;;;;;;11.02;6.43;;;;;;;;;;4959157;28;20039;-65
2023/08/31 04:03:46;;;;;;;7.88;6.00;;;;;;;;;;4973660;28;20035;-65
2023/08/31 04:06:12;;;;;;;12.15;5.68;;;;;;;;;;4957111;28;20484;-65
2023/08/31 04:08:37;;;;;;;11.23;6.05;;;;;;;;;;4976133;28;20102;-65
2023/08/31 04:11:03;;;;;;;10.85;5.95;;;;;;;;;;4995051;28;20053;-65
2023/08/31 04:13:28;;;;;;;8.05;5.97;;;;;;;;;;4956007;28;20396;-65
2023/08/31 04:15:54;;;;;;;9.27;6.28;;;;;;;;;;4974441;28;20043;-65
2023/08/31 04:18:20;;;;;;;7.85;5.85;;;;;;;;;;4957082;28;20032;-66
2023/08/31 04:20:51;;;;;;;6.43;4.65;;;;;;;;;;4973399;28;20035;-65
2023/08/31 04:23:17;;;;;;;5.95;4.93;;;;;;;;;;4957466;28;20121;-65
2023/08/31 04:25:42;;;;;;;9.65;5.00;;;;;;;;;;4972167;28;20052;-65
2023/08/31 04:28:08;;;;;;;7.63;4.88;;;;;;;;;;4958673;28;20081;-65
2023/08/31 04:30:33;;;;;;;7.97;5.07;;;;;;;;;;4971342;28;20124;-65
2023/08/31 04:32:59;;;;;;;6.30;4.80;;;;;;;;;;4959903;28;20038;-65
2023/08/31 04:35:24;;;;;;;6.07;4.78;;;;;;;;;;4970247;28;20492;-65
2023/08/31 04:37:50;;;;;;;5.28;4.40;;;;;;;;;;4960978;28;20031;-65
2023/08/31 04:40:15;;;;;;;7.25;5.57;;;;;;;;;;4968298;28;20053;-65
2023/08/31 04:42:42;;;;;;;6.18;5.00;;;;;;;;;;4958328;28;20044;-65
2023/08/31 04:45:07;;;;;;;5.60;4.40;;;;;;;;;;4971296;28;20057;-65
2023/08/31 04:47:33;;;;;;;5.95;5.00;;;;;;;;;;4959191;28;20495;-65
2023/08/31 04:49:59;;;;;;;5.47;4.55;;;;;;;;;;4985112;28;20117;-65
2023/08/31 04:52:24;;;;;;;6.28;4.70;;;;;;;;;;4979710;28;20448;-65
2023/08/31 04:54:50;;;;;;;5.50;4.45;;;;;;;;;;4960829;28;20035;-65
2023/08/31 04:57:16;;;;;;;6.45;4.45;;;;;;;;;;4967887;28;20043;-65
2023/08/31 04:59:41;;;;;;;5.72;4.38;;;;;;;;;;4961934;28;20038;-65
2023/08/31 05:02:06;;;;;;;6.43;4.30;;;;;;;;;;4966972;28;20069;-65
2023/08/31 05:04:32;;;;;;;6.40;4.75;;;;;;;;;;4963269;28;20503;-65
2023/08/31 05:06:57;;;;;;;6.25;4.80;;;;;;;;;;4965508;28;20066;-65
2023/08/31 05:09:26;;;;;;;10.18;4.85;;;;;;;;;;4964254;28;20062;-65
2023/08/31 05:11:52;;;;;;;8.07;4.68;;;;;;;;;;4969548;28;20129;-65
2023/08/31 05:14:17;;;;;;;6.85;5.03;;;;;;;;;;4963728;28;20129;-66
2023/08/31 05:16:43;;;;;;;7.60;5.10;;;;;;;;;;4965853;28;20477;-66
2023/08/31 05:19:09;;;;;;;6.20;4.95;;;;;;;;;;4962715;28;20037;-66
2023/08/31 05:21:34;;;;;;;6.22;4.70;;;;;;;;;;4967078;28;20036;-66
2023/08/31 05:23:59;;;;;;;12.35;6.38;;;;;;;;;;4961439;28;20484;-66
2023/08/31 05:26:25;;;;;;;8.63;5.10;;;;;;;;;;4980105;28;20357;-66
2023/08/31 05:28:50;;;;;;;5.78;4.70;;;;;;;;;;4988346;28;20030;-66
2023/08/31 05:31:16;;;;;;;7.68;4.35;;;;;;;;;;4969498;28;20050;-66
2023/08/31 05:33:41;;;;;;;7.05;4.65;;;;;;;;;;4958778;28;20038;-66
2023/08/31 05:36:06;;;;;;;6.30;4.00;;;;;;;;;;4970645;28;20035;-65
2023/08/31 05:38:33;;;;;;;7.13;3.70;;;;;;;;;;4957484;28;20050;-66
2023/08/31 05:41:06;;;;;;;5.70;3.58;;;;;;;;;;4971988;28;20102;-66
2023/08/31 05:43:33;;;;;;;4.97;3.70;;;;;;;;;;4957136;28;20105;-66
2023/08/31 05:45:58;;;;;;;5.25;3.17;;;;;;;;;;4971760;28;20515;-66
2023/08/31 05:48:24;;;;;;;4.47;3.65;;;;;;;;;;4956256;28;20055;-66
2023/08/31 05:50:49;;;;;;;5.47;3.90;;;;;;;;;;4972408;28;20035;-65
2023/08/31 05:53:15;;;;;;;6.55;4.13;;;;;;;;;;4954695;28;20118;-65
2023/08/31 05:55:40;;;;;;;6.13;4.80;;;;;;;;;;4973691;28;20460;-66
2023/08/31 05:58:05;;;;;;;5.78;4.30;;;;;;;;;;4954976;28;20086;-66
2023/08/31 06:00:31;;;;;;;8.13;4.72;;;;;;;;;;4972762;28;20039;-66
2023/08/31 06:02:56;;;;;;;5.32;4.20;;;;;;;;;;4956203;28;20400;-66
2023/08/31 06:05:22;;;;;;;6.22;3.97;;;;;;;;;;4988239;28;20420;-66
2023/08/31 06:07:47;;;;;;;6.55;4.75;;;;;;;;;;4976083;28;20031;-66
2023/08/31 06:10:14;;;;;;;6.93;5.00;;;;;;;;;;4954195;29;20480;-65
2023/08/31 06:12:40;;;;;;;7.38;4.03;;;;;;;;;;4973382;28;20126;-66
2023/08/31 06:15:06;;;;;;;4.85;4.13;;;;;;;;;;4954797;28;20122;-65
2023/08/31 06:17:31;;;;;;;5.40;4.05;;;;;;;;;;4972367;28;20042;-66
2023/08/31 06:19:57;;;;;;;6.05;4.60;;;;;;;;;;4954762;28;20453;-65
2023/08/31 06:22:24;;;;;;;5.95;4.68;;;;;;;;;;4971169;28;20117;-66
2023/08/31 06:24:50;;;;;;;6.35;4.50;;;;;;;;;;4956542;28;20034;-66
2023/08/31 06:27:17;;;;;;;10.48;7.53;;;;;;;;;;4969724;28;20030;-66
2023/08/31 06:29:43;;;;;;;6.78;5.00;;;;;;;;;;4958280;28;20031;-66
2023/08/31 06:32:08;;;;;;;8.35;5.20;;;;;;;;;;4968984;28;20031;-66
2023/08/31 06:34:34;;;;;;;6.38;4.90;;;;;;;;;;4959368;28;20036;-66
2023/08/31 06:36:59;;;;;;;8.27;4.55;;;;;;;;;;4967580;28;20077;-66
2023/08/31 06:39:25;;;;;;;7.22;4.90;;;;;;;;;;4960402;28;20082;-66
2023/08/31 06:41:51;;;;;;;8.85;5.45;;;;;;;;;;4966490;28;20476;-66
2023/08/31 06:44:16;;;;;;;6.20;5.15;;;;;;;;;;4984904;28;20046;-65
2023/08/31 06:46:42;;;;;;;6.47;5.28;;;;;;;;;;4981020;28;20079;-66
2023/08/31 06:49:07;;;;;;;9.00;5.97;;;;;;;;;;4958816;28;20031;-66
2023/08/31 06:51:33;;;;;;;9.02;6.00;;;;;;;;;;4967798;28;20093;-65
2023/08/31 06:54:05;;;;;;;9.35;5.53;;;;;;;;;;4959833;28;20028;-66
2023/08/31 06:56:35;;;;;;;11.38;6.13;;;;;;;;;;4967519;28;20043;-66
2023/08/31 06:59:00;;;;;;;9.97;6.13;;;;;;;;;;4959981;28;20072;-66
2023/08/31 07:01:27;;;;;;;12.05;6.53;;;;;;;;;;4966965;28;20458;-66
2023/08/31 07:03:53;;;;;;;8.73;6.05;;;;;;;;;;4963282;28;20101;-66
2023/08/31 07:06:18;;;;;;;9.38;6.68;;;;;;;;;;4968856;28;20038;-66
2023/08/31 07:08:45;;;;;;;7.93;6.05;;;;;;;;;;4965294;28;20134;-66
2023/08/31 07:11:11;;;;;;;9.30;6.68;;;;;;;;;;4967914;28;20045;-66
2023/08/31 07:13:37;;;;;;;7.68;6.22;;;;;;;;;;4966248;28;20449;-66
2023/08/31 07:16:02;;;;;;;8.30;5.80;;;;;;;;;;4966481;28;20122;-67
2023/08/31 07:18:28;;;;;;;7.95;5.45;;;;;;;;;;4967689;28;20058;-66
2023/08/31 07:20:53;;;;;;;7.32;5.30;;;;;;;;;;4965296;28;20062;-66
2023/08/31 07:23:19;;;;;;;7.88;5.80;;;;;;;;;;4983576;28;20045;-66
2023/08/31 07:25:44;;;;;;;5.97;4.88;;;;;;;;;;4988534;28;20035;-66
2023/08/31 07:28:10;;;;;;;5.60;4.80;;;;;;;;;;4969915;28;20035;-66
2023/08/31 07:30:37;;;;;;;7.43;4.20;;;;;;;;;;4962601;28;20078;-66
2023/08/31 07:33:03;;;;;;;6.05;3.53;;;;;;;;;;4971198;28;20035;-66
2023/08/31 07:35:29;;;;;;;6.05;4.88;;;;;;;;;;4961386;28;20078;-65
2023/08/31 07:37:55;;;;;;;6.93;4.47;;;;;;;;;;4971992;28;20122;-66
2023/08/31 07:40:20;;;;;;;6.15;4.78;;;;;;;;;;4960234;28;20114;-66
2023/08/31 07:42:46;;;;;;;6.22;5.10;;;;;;;;;;4973165;28;20496;-66
2023/08/31 07:45:11;;;;;;;6.20;4.57;;;;;;;;;;4958862;28;20031;-66
2023/08/31 07:47:36;;;;;;;6.38;5.40;;;;;;;;;;4974609;28;20034;-66
2023/08/31 07:50:02;;;;;;;6.45;5.07;;;;;;;;;;4957249;28;20015;-66
2023/08/31 07:52:28;;;;;;;6.13;4.57;;;;;;;;;;4975434;28;20106;-66
2023/08/31 07:54:53;;;;;;;6.70;4.53;;;;;;;;;;4956836;29;20028;-66
2023/08/31 07:57:19;;;;;;;6.38;5.07;;;;;;;;;;4975570;28;20336;-66
2023/08/31 07:59:44;;;;;;;6.97;5.00;;;;;;;;;;4957465;28;20031;-66
2023/08/31 08:02:10;;;;;;;6.60;5.43;;;;;;;;;;4992181;28;20030;-66
2023/08/31 08:04:35;;;;;;;10.93;5.78;;;;;;;;;;4977912;28;20027;-66
2023/08/31 08:07:01;;;;;;;5.93;4.50;;;;;;;;;;4958758;28;20539;-66
2023/08/31 08:09:26;;;;;;;4.43;2.97;;;;;;;;;;4972327;28;20034;-66
2023/08/31 08:11:52;;;;;;;7.32;4.70;;;;;;;;;;4960252;28;20046;-66
2023/08/31 08:14:17;;;;;;;5.43;4.40;;;;;;;;;;4970039;28;20043;-66
2023/08/31 08:16:43;;;;;;;7.80;5.38;;;;;;;;;;4961370;28;20032;-66
2023/08/31 08:19:08;;;;;;;6.80;5.05;;;;;;;;;;4969518;28;20484;-66
2023/08/31 08:21:34;;;;;;;5.93;4.57;;;;;;;;;;4962604;28;20093;-65
2023/08/31 08:24:00;;;;;;;6.13;4.60;;;;;;;;;;4968099;28;20046;-66
2023/08/31 08:26:25;;;;;;;5.55;4.45;;;;;;;;;;4959540;28;20039;-66
2023/08/31 08:28:51;;;;;;;5.75;4.35;;;;;;;;;;4970832;28;20031;-66
2023/08/31 08:31:16;;;;;;;5.43;3.65;;;;;;;;;;4961011;28;20496;-66
2023/08/31 08:33:42;;;;;;;5.38;4.15;;;;;;;;;;4969501;28;20181;-66
2023/08/31 08:36:07;;;;;;;7.20;4.45;;;;;;;;;;4961867;28;20117;-66
2023/08/31 08:38:32;;;;;;;6.47;4.53;;;;;;;;;;4967933;28;20374;-66
2023/08/31 08:41:04;;;;;;;5.50;4.05;;;;;;;;;;4986863;28;20081;-66
2023/08/31 08:43:30;;;;;;;6.00;4.28;;;;;;;;;;4982384;28;20037;-66
2023/08/31 08:46:04;;;;;;;5.50;4.10;;;;;;;;;;4962903;28;20035;-66
2023/08/31 08:48:30;;;;;;;5.65;4.50;;;;;;;;;;4966888;28;20523;-66
2023/08/31 08:50:56;;;;;;;6.25;4.45;;;;;;;;;;4963447;28;20027;-66
2023/08/31 08:53:21;;;;;;;6.03;4.10;;;;;;;;;;4965964;28;20041;-66
2023/08/31 08:55:47;;;;;;;5.07;4.10;;;;;;;;;;4964618;28;20106;-66
2023/08/31 08:58:12;;;;;;;6.63;3.85;;;;;;;;;;4964277;28;20035;-66
2023/08/31 09:00:40;;;;;;;6.53;3.03;;;;;;;;;;4966002;28;20035;-66
2023/08/31 09:03:05;;;;;;;5.53;3.67;;;;;;;;;;4963410;28;20030;-66
2023/08/31 09:05:33;;;;;;;6.90;2.97;;;;;;;;;;4966568;28;20385;-66
2023/08/31 09:08:09;;;;;;;4.10;3.17;;;;;;;;;;4962575;28;20030;-66
2023/08/31 09:10:39;;;;;;;5.38;3.38;;;;;;;;;;4966504;28;20027;-66
2023/08/31 09:13:13;;;;;;;6.97;3.45;;;;;;;;;;4963233;28;20166;-66
2023/08/31 09:15:49;;;;;;;6.25;2.70;;;;;;;;;;4965964;28;20039;-66
2023/08/31 09:18:28;;;;;;;6.28;3.10;;;;;;;;;;4973622;28;20037;-66
2023/08/31 09:20:56;;;;;;;7.32;2.50;;;;;;;;;;4982561;28;20035;-66
2023/08/31 09:23:22;;;;;;;4.88;2.80;;;;;;;;;;4963398;28;20452;-66
2023/08/31 09:25:49;;;;;;;8.90;2.60;;;;;;;;;;4963428;28;20030;-66
2023/08/31 09:28:26;;;;;;;6.75;2.35;;;;;;;;;;4963752;28;20388;-66
2023/08/31 09:30:53;;;;;;;8.00;2.40;;;;;;;;;;4965000;28;20114;-66
2023/08/31 09:33:23;;;;;;;7.43;2.83;;;;;;;;;;4964252;28;20027;-66
2023/08/31 09:35:56;;;;;;;4.10;2.40;;;;;;;;;;4964394;28;20039;-66
2023/08/31 09:38:22;;;;;;;7.00;2.55;;;;;;;;;;4964123;28;20031;-66
2023/08/31 09:40:47;;;;;;;4.47;2.50;;;;;;;;;;4964010;28;20027;-66
2023/08/31 09:43:23;;;;;;;7.80;2.50;;;;;;;;;;4965215;28;20035;-66
2023/08/31 09:45:50;;;;;;;6.30;2.40;;;;;;;;;;4963882;28;20543;-66
2023/08/31 09:48:16;;;;;;;9.68;2.80;;;;;;;;;;4964572;28;20031;-66
2023/08/31 09:50:43;;;;;;;6.28;2.42;;;;;;;;;;4962774;28;20496;-66
2023/08/31 09:53:10;;;;;;;6.55;2.10;;;;;;;;;;4965612;28;20472;-66
2023/08/31 09:55:38;;;;;;;5.25;2.28;;;;;;;;;;4969770;28;20030;-66
2023/08/31 09:58:06;;;;;;;4.72;2.22;;;;;;;;;;4981974;28;20045;-66
2023/08/31 10:00:34;;;;;;;3.85;2.22;;;;;;;;;;4962646;28;20033;-66
2023/08/31 10:03:02;;;;;;;4.22;2.05;;;;;;;;;;4965034;28;20476;-66
2023/08/31 10:05:28;;;;;;;5.03;1.60;;;;;;;;;;4963188;28;20057;-66
2023/08/31 10:07:54;;;;;;;3.45;1.50;;;;;;;;;;4964216;28;20473;-66
2023/08/31 10:10:22;;;;;;;2.95;1.70;;;;;;;;;;4964437;28;20023;-66
2023/08/31 10:12:49;;;;;;;5.28;1.30;;;;;;;;;;4963063;28;20089;-66
2023/08/31 10:15:16;;;;;;;4.80;1.73;;;;;;;;;;4964944;28;20401;-66
2023/08/31 10:17:42;;;;;;;3.85;1.70;;;;;;;;;;4962413;28;20385;-66
2023/08/31 10:20:10;;;;;;;5.07;1.45;;;;;;;;;;4966248;28;20135;-66
2023/08/31 10:22:37;;;;;;;5.20;1.92;;;;;;;;;;4961636;28;20023;-66
2023/08/31 10:25:07;;;;;;;2.85;1.50;;;;;;;;;;4966331;28;20023;-66
2023/08/31 10:27:39;;;;;;;5.20;1.52;;;;;;;;;;4960866;28;20042;-66
2023/08/31 10:30:22;;;;;;;3.85;1.50;;;;;;;;;;4966482;28;20090;-66
2023/08/31 10:33:10;;;;;;;4.20;1.30;;;;;;;;;;4962632;28;20031;-66
2023/08/31 10:35:47;;;;;;;4.68;1.50;;;;;;;;;;4972133;28;20137;-66
2023/08/31 10:38:26;;;;;;;4.40;1.30;;;;;;;;;;4964506;28;20031;-66
2023/08/31 10:41:02;;;;;;;3.67;1.58;;;;;;;;;;4958112;28;20495;-66
2023/08/31 10:43:42;;;;;;;3.20;1.40;;;;;;;;;;4971092;28;20035;-66
2023/08/31 10:46:18;;;;;;;4.30;1.48;;;;;;;;;;4960904;28;20089;-66
2023/08/31 10:48:51;;;;;;;4.95;1.50;;;;;;;;;;4973134;28;20039;-66
2023/08/31 10:51:18;;;;;;;4.93;1.50;;;;;;;;;;4960565;28;20066;-66
2023/08/31 10:53:45;;;;;;;5.45;1.70;;;;;;;;;;4973574;28;20437;-66
2023/08/31 10:56:11;;;;;;;2.97;1.65;;;;;;;;;;4961396;28;20453;-66
2023/08/31 10:58:36;;;;;;;4.35;1.88;;;;;;;;;;4972193;28;20031;-66
2023/08/31 11:01:03;;;;;;;3.97;2.00;;;;;;;;;;4962311;28;20601;-66
2023/08/31 11:03:30;;;;;;;3.17;1.63;;;;;;;;;;4971220;28;20026;-66
2023/08/31 11:05:55;;;;;;;4.93;1.40;;;;;;;;;;4963008;28;20038;-66
2023/08/31 11:08:25;;;;;;;5.80;1.70;;;;;;;;;;4969923;28;20031;-66
2023/08/31 11:10:53;;;;;;;;;;;;;;;;;;4964497;28;20498;-66
2023/08/31 11:13:20;;;;;;;4.30;1.35;;;;;;;;;;4981812;28;19980;-66
2023/08/31 11:15:46;;;;;;;5.75;2.00;;;;;;;;;;4983661;28;20484;-66
2023/08/31 11:18:12;;;;;;;3.80;1.45;;;;;;;;;;4965343;28;20044;-66
2023/08/31 11:20:37;;;;;;;3.58;1.73;;;;;;;;;;4967596;28;20382;-66
2023/08/31 11:23:03;;;;;;;5.30;1.50;;;;;;;;;;4966364;28;20069;-66
2023/08/31 11:25:32;;;;;;;3.13;1.60;;;;;;;;;;4966355;28;20066;-66
2023/08/31 11:28:00;;;;;;;6.25;1.88;;;;;;;;;;4966870;28;20481;-66
2023/08/31 11:30:33;;;;;;;5.97;1.40;;;;;;;;;;4965981;28;20041;-66
2023/08/31 11:33:03;;;;;;;8.00;1.40;;;;;;;;;;4967039;28;20110;-66
2023/08/31 11:35:40;;;;;;;5.28;1.40;;;;;;;;;;4966278;28;20058;-66
2023/08/31 11:38:06;;;;;;;5.20;1.52;;;;;;;;;;4961733;28;20035;-66
2023/08/31 11:40:31;;;;;;;2.95;1.13;;;;;;;;;;4970425;28;20027;-66
2023/08/31 11:43:00;;;;;;;2.67;1.38;;;;;;;;;;4963108;28;20374;-66
2023/08/31 11:45:26;;;;;;;2.83;1.23;;;;;;;;;;4968562;28;20041;-66
2023/08/31 11:47:53;;;;;;;4.57;1.20;;;;;;;;;;4962845;28;20054;-67
2023/08/31 11:50:20;;;;;;;2.75;1.08;;;;;;;;;;4967857;28;20022;-66
2023/08/31 11:52:46;;;;;;;3.92;1.05;;;;;;;;;;4987076;28;20444;-66
2023/08/31 11:55:14;;;;;;;2.35;1.00;;;;;;;;;;4984050;28;20038;-66
2023/08/31 11:57:39;;;;;;;3.20;1.25;;;;;;;;;;4965264;28;20038;-66
2023/08/31 12:00:06;;;;;;;2.20;1.00;;;;;;;;;;4966033;28;20472;-67
2023/08/31 12:02:38;;;;;;;2.45;0.93;;;;;;;;;;4966248;28;20039;-66
2023/08/31 12:05:07;;;;;;;4.28;1.02;;;;;;;;;;4965839;28;20109;-66
2023/08/31 12:07:39;;;;;;;1.63;0.82;;;;;;;;;;4966201;28;20035;-66
2023/08/31 12:10:05;;;;;;;1.77;1.10;;;;;;;;;;4965890;28;20054;-66
2023/08/31 12:12:32;;;;;;;3.47;0.90;;;;;;;;;;4966351;28;20497;-67
2023/08/31 12:15:00;;;;;;;4.38;1.00;;;;;;;;;;4964704;28;20031;-66
2023/08/31 12:17:26;;;;;;;1.33;0.90;;;;;;;;;;4967032;28;20035;-66
2023/08/31 12:19:51;;;;;;;1.58;1.10;;;;;;;;;;4963741;28;20041;-66
2023/08/31 12:22:17;;;;;;;4.13;0.85;;;;;;;;;;4967990;28;20031;-66
2023/08/31 12:24:42;;;;;;;2.45;1.00;;;;;;;;;;4962261;28;20496;-66
2023/08/31 12:27:08;;;;;;;3.83;1.05;;;;;;;;;;4969318;28;20042;-66
2023/08/31 12:29:34;;;;;;;3.95;0.90;;;;;;;;;;4966290;28;20375;-66
2023/08/31 12:32:00;;;;;;;2.88;1.10;;;;;;;;;;4989834;28;20117;-66
2023/08/31 12:34:26;;;;;;;2.95;0.85;;;;;;;;;;4970860;28;20023;-66
2023/08/31 12:36:52;;;;;;;2.88;1.00;;;;;;;;;;4959079;28;20079;-66
2023/08/31 12:39:18;;;;;;;2.03;1.00;;;;;;;;;;4971731;28;20094;-66
2023/08/31 12:41:43;;;;;;;5.53;1.20;;;;;;;;;;4957309;28;20063;-66
2023/08/31 12:44:10;;;;;;;2.53;1.08;;;;;;;;;;4972632;28;20046;-66
2023/08/31 12:46:35;;;;;;;4.97;1.17;;;;;;;;;;4956360;28;20394;-66
2023/08/31 12:49:03;;;;;;;4.03;1.20;;;;;;;;;;4973938;28;20039;-66
2023/08/31 12:51:31;;;;;;;3.00;1.00;;;;;;;;;;4955258;28;20031;-66
2023/08/31 12:53:57;;;;;;;5.25;1.30;;;;;;;;;;4974723;28;20365;-66
2023/08/31 12:56:23;;;;;;;1.83;0.70;;;;;;;;;;4958250;28;20030;-66
2023/08/31 12:58:53;;;;;;;2.20;1.00;;;;;;;;;;4971615;28;20123;-66
2023/08/31 13:01:20;;;;;;;6.00;1.15;;;;;;;;;;4957795;28;20035;-66
2023/08/31 13:03:47;;;;;;;2.35;0.90;;;;;;;;;;4971948;28;20043;-66
2023/08/31 13:06:18;;;;;;;6.68;1.30;;;;;;;;;;4956463;28;20039;-66
2023/08/31 13:08:45;;;;;;;1.90;0.90;;;;;;;;;;4976127;28;20065;-66
2023/08/31 13:11:12;;;;;;;5.43;1.30;;;;;;;;;;4991835;28;20061;-66
2023/08/31 13:13:38;;;;;;;3.65;1.08;;;;;;;;;;4972809;28;20047;-66
2023/08/31 13:16:04;;;;;;;3.45;1.00;;;;;;;;;;4955316;28;20071;-66
2023/08/31 13:18:29;;;;;;;2.72;0.90;;;;;;;;;;4974353;28;20073;-66
2023/08/31 13:20:55;;;;;;;1.67;0.88;;;;;;;;;;4954904;29;20027;-66
2023/08/31 13:23:22;;;;;;;1.92;0.80;;;;;;;;;;4973319;28;20042;-66
2023/08/31 13:25:48;;;;;;;3.38;0.90;;;;;;;;;;4953798;28;20386;-66
2023/08/31 13:28:14;;;;;;;3.00;0.80;;;;;;;;;;4972481;28;20121;-66
2023/08/31 13:30:39;;;;;;;4.63;1.08;;;;;;;;;;4956896;28;20454;-66
2023/08/31 13:33:06;;;;;;;1.95;0.80;;;;;;;;;;4971041;28;20088;-66
2023/08/31 13:35:32;;;;;;;2.90;1.00;;;;;;;;;;4957818;28;20027;-66
2023/08/31 13:37:58;;;;;;;3.15;1.00;;;;;;;;;;4973968;28;20078;-66
2023/08/31 13:40:23;;;;;;;3.25;1.13;;;;;;;;;;4954818;28;20027;-66
2023/08/31 13:42:54;;;;;;;2.08;0.80;;;;;;;;;;4972660;28;20042;-66
2023/08/31 13:45:20;;;;;;;1.58;0.80;;;;;;;;;;4955507;28;20384;-66
2023/08/31 13:47:48;;;;;;;6.10;0.90;;;;;;;;;;4972193;28;20035;-66
2023/08/31 13:50:15;;;;;;;2.10;0.80;;;;;;;;;;4991354;28;20026;-66
2023/08/31 13:52:41;;;;;;;3.08;1.00;;;;;;;;;;4975937;28;20480;-66
2023/08/31 13:55:07;;;;;;;6.90;1.60;;;;;;;;;;4956950;28;20473;-66
2023/08/31 13:57:32;;;;;;;4.05;1.17;;;;;;;;;;4970366;28;20030;-66
2023/08/31 13:59:58;;;;;;;1.98;0.73;;;;;;;;;;4958513;28;20075;-66
2023/08/31 14:02:23;;;;;;;3.53;1.10;;;;;;;;;;4968914;28;20030;-66
2023/08/31 14:04:48;;;;;;;4.30;0.98;;;;;;;;;;4959714;28;20381;-66
2023/08/31 14:07:14;;;;;;;4.50;1.08;;;;;;;;;;4967532;28;20031;-66
2023/08/31 14:09:39;;;;;;;2.95;1.25;;;;;;;;;;4960579;28;20042;-66
2023/08/31 14:12:05;;;;;;;3.13;0.77;;;;;;;;;;4969156;28;20027;-66
2023/08/31 14:14:30;;;;;;;3.70;0.90;;;;;;;;;;4968411;28;20089;-66
2023/08/31 14:16:56;;;;;;;3.88;0.90;;;;;;;;;;4971333;28;20023;-66
2023/08/31 14:19:22;;;;;;;2.25;0.95;;;;;;;;;;4965717;28;20066;-66
2023/08/31 14:21:47;;;;;;;2.33;0.80;;;;;;;;;;4974067;28;20073;-66
2023/08/31 14:24:13;;;;;;;2.10;0.80;;;;;;;;;;4966709;28;20039;-66
2023/08/31 14:26:38;;;;;;;3.25;1.23;;;;;;;;;;4972493;28;20034;-66
2023/08/31 14:29:04;;;;;;;2.58;0.95;;;;;;;;;;4991558;28;20038;-66
2023/08/31 14:31:29;;;;;;;2.70;1.05;;;;;;;;;;4988161;28;20476;-66
2023/08/31 14:33:55;;;;;;;2.60;0.88;;;;;;;;;;4969391;28;20042;-66
2023/08/31 14:36:21;;;;;;;3.13;1.00;;;;;;;;;;4970124;28;20030;-66
2023/08/31 14:38:46;;;;;;;3.30;1.25;;;;;;;;;;4969986;28;20046;-66
2023/08/31 14:41:12;;;;;;;3.60;0.93;;;;;;;;;;4968860;28;20117;-66